sensor_id;sensor_type;location;lat;lon;timestamp;pressure;altitude;pressure_sealevel;temperature;humidity
72438;BME280;60444;43.534;-5.674;2023-05-08T00:01:07;102510.63;;;16.01;100.00
72438;BME280;60444;43.534;-5.674;2023-05-08T00:03:33;102491.81;;;15.95;100.00
72438;BME280;60444;43.534;-5.674;2023-05-08T00:05:58;102506.00;;;16.03;100.00
72438;BME280;60444;43.534;-5.674;2023-05-08T00:08:24;102506.22;;;15.99;100.00
72438;BME280;60444;43.534;-5.674;2023-05-08T00:10:49;102509.00;;;15.97;100.00
72438;BME280;60444;43.534;-5.674;2023-05-08T00:13:15;102502.91;;;15.91;100.00
72438;BME280;60444;43.534;-5.674;2023-05-08T00:15:41;102507.22;;;15.96;100.00
72438;BME280;60444;43.534;-5.674;2023-05-08T00:18:06;102509.00;;;15.97;100.00
72438;BME280;60444;43.534;-5.674;2023-05-08T00:20:32;102475.03;;;15.84;100.00
72438;BME280;60444;43.534;-5.674;2023-05-08T00:22:58;102466.09;;;15.81;100.00
72438;BME280;60444;43.534;-5.674;2023-05-08T00:25:24;102495.63;;;15.91;100.00
72438;BME280;60444;43.534;-5.674;2023-05-08T00:27:49;102482.25;;;15.85;100.00
72438;BME280;60444;43.534;-5.674;2023-05-08T00:30:15;102493.88;;;15.90;100.00
72438;BME280;60444;43.534;-5.674;2023-05-08T00:32:40;102485.69;;;15.90;100.00
72438;BME280;60444;43.534;-5.674;2023-05-08T00:35:09;102481.97;;;15.91;100.00
72438;BME280;60444;43.534;-5.674;2023-05-08T00:37:34;102484.72;;;15.91;100.00
72438;BME280;60444;43.534;-5.674;2023-05-08T00:40:02;102494.69;;;15.92;100.00
72438;BME280;60444;43.534;-5.674;2023-05-08T00:42:31;102494.72;;;15.91;100.00
72438;BME280;60444;43.534;-5.674;2023-05-08T00:44:56;102456.66;;;15.68;100.00
72438;BME280;60444;43.534;-5.674;2023-05-08T00:47:22;102491.25;;;15.87;100.00
72438;BME280;60444;43.534;-5.674;2023-05-08T00:49:48;102468.13;;;15.76;100.00
72438;BME280;60444;43.534;-5.674;2023-05-08T00:52:14;102485.25;;;15.79;100.00
72438;BME280;60444;43.534;-5.674;2023-05-08T00:54:40;102463.19;;;15.64;100.00
72438;BME280;60444;43.534;-5.674;2023-05-08T00:57:06;102483.88;;;15.69;100.00
72438;BME280;60444;43.534;-5.674;2023-05-08T00:59:33;102483.88;;;15.69;100.00
72438;BME280;60444;43.534;-5.674;2023-05-08T01:02:00;102480.28;;;15.69;100.00
72438;BME280;60444;43.534;-5.674;2023-05-08T01:04:26;102475.91;;;15.65;100.00
72438;BME280;60444;43.534;-5.674;2023-05-08T01:06:54;102472.34;;;15.63;100.00
72438;BME280;60444;43.534;-5.674;2023-05-08T01:09:20;102480.28;;;15.69;100.00
72438;BME280;60444;43.534;-5.674;2023-05-08T01:11:58;102475.91;;;15.65;100.00
72438;BME280;60444;43.534;-5.674;2023-05-08T01:20:29;102457.88;;;15.61;100.00
72438;BME280;60444;43.534;-5.674;2023-05-08T01:32:07;102445.66;;;15.49;100.00
72438;BME280;60444;43.534;-5.674;2023-05-08T01:35:20;102414.50;;;15.33;100.00
72438;BME280;60444;43.534;-5.674;2023-05-08T01:37:48;102443.88;;;15.48;100.00
72438;BME280;60444;43.534;-5.674;2023-05-08T01:40:35;102422.59;;;15.36;100.00
72438;BME280;60444;43.534;-5.674;2023-05-08T01:45:46;102428.84;;;15.38;100.00
72438;BME280;60444;43.534;-5.674;2023-05-08T01:48:18;102413.66;;;15.32;100.00
72438;BME280;60444;43.534;-5.674;2023-05-08T01:50:48;102405.50;;;15.31;100.00
72438;BME280;60444;43.534;-5.674;2023-05-08T01:53:33;102415.34;;;15.35;100.00
72438;BME280;60444;43.534;-5.674;2023-05-08T01:56:07;102388.09;;;15.13;100.00
72438;BME280;60444;43.534;-5.674;2023-05-08T01:58:35;102412.75;;;15.32;100.00
72438;BME280;60444;43.534;-5.674;2023-05-08T02:01:02;102389.69;;;15.19;100.00
72438;BME280;60444;43.534;-5.674;2023-05-08T02:03:30;102393.63;;;15.12;100.00
72438;BME280;60444;43.534;-5.674;2023-05-08T02:05:57;102406.03;;;15.19;100.00
72438;BME280;60444;43.534;-5.674;2023-05-08T02:08:24;102414.47;;;15.13;100.00
72438;BME280;60444;43.534;-5.674;2023-05-08T02:10:51;102400.28;;;15.05;100.00
72438;BME280;60444;43.534;-5.674;2023-05-08T02:13:18;102397.44;;;15.08;100.00
72438;BME280;60444;43.534;-5.674;2023-05-08T02:15:50;102402.13;;;15.04;100.00
72438;BME280;60444;43.534;-5.674;2023-05-08T02:18:22;102389.72;;;14.97;100.00
72438;BME280;60444;43.534;-5.674;2023-05-08T02:20:50;102409.16;;;15.10;100.00
72438;BME280;60444;43.534;-5.674;2023-05-08T02:23:21;102399.22;;;15.09;100.00
72438;BME280;60444;43.534;-5.674;2023-05-08T02:25:49;102412.56;;;15.15;100.00
72438;BME280;60444;43.534;-5.674;2023-05-08T02:28:16;102414.59;;;15.10;100.00
72438;BME280;60444;43.534;-5.674;2023-05-08T02:30:43;102404.78;;;15.06;100.00
72438;BME280;60444;43.534;-5.674;2023-05-08T02:33:11;102407.78;;;15.00;100.00
72438;BME280;60444;43.534;-5.674;2023-05-08T02:35:39;102388.81;;;14.97;100.00
72438;BME280;60444;43.534;-5.674;2023-05-08T02:38:07;102395.31;;;14.94;100.00
72438;BME280;60444;43.534;-5.674;2023-05-08T02:40:36;102404.03;;;15.02;100.00
72438;BME280;60444;43.534;-5.674;2023-05-08T02:43:03;102414.06;;;15.02;100.00
72438;BME280;60444;43.534;-5.674;2023-05-08T02:45:37;102348.47;;;14.63;100.00
72438;BME280;60444;43.534;-5.674;2023-05-08T02:50:44;102382.97;;;14.86;100.00
72438;BME280;60444;43.534;-5.674;2023-05-08T02:53:20;102403.16;;;15.02;100.00
72438;BME280;60444;43.534;-5.674;2023-05-08T02:55:53;102382.59;;;14.93;100.00
72438;BME280;60444;43.534;-5.674;2023-05-08T02:58:32;102394.09;;;15.01;100.00
72438;BME280;60444;43.534;-5.674;2023-05-08T03:01:04;102390.28;;;15.05;100.00
72438;BME280;60444;43.534;-5.674;2023-05-08T03:03:38;102408.47;;;15.05;100.00
72438;BME280;60444;43.534;-5.674;2023-05-08T03:06:16;102388.94;;;14.94;100.00
72438;BME280;60444;43.534;-5.674;2023-05-08T03:08:44;102377.91;;;14.97;100.00
72438;BME280;60444;43.534;-5.674;2023-05-08T03:11:14;102383.03;;;15.04;100.00
72438;BME280;60444;43.534;-5.674;2023-05-08T03:13:41;102389.19;;;15.09;100.00
72438;BME280;60444;43.534;-5.674;2023-05-08T03:16:15;102393.69;;;15.10;100.00
72438;BME280;60444;43.534;-5.674;2023-05-08T03:18:51;102398.41;;;15.07;100.00
72438;BME280;60444;43.534;-5.674;2023-05-08T03:21:19;102390.22;;;15.07;100.00
72438;BME280;60444;43.534;-5.674;2023-05-08T03:23:48;102388.72;;;15.00;100.00
72438;BME280;60444;43.534;-5.674;2023-05-08T03:26:18;102396.06;;;14.98;100.00
72438;BME280;60444;43.534;-5.674;2023-05-08T03:28:49;102386.91;;;14.99;100.00
72438;BME280;60444;43.534;-5.674;2023-05-08T03:31:19;102383.38;;;14.97;100.00
72438;BME280;60444;43.534;-5.674;2023-05-08T03:33:52;102383.88;;;15.06;100.00
72438;BME280;60444;43.534;-5.674;2023-05-08T03:36:18;102394.03;;;15.03;100.00
72438;BME280;60444;43.534;-5.674;2023-05-08T03:38:44;102368.22;;;14.90;100.00
72438;BME280;60444;43.534;-5.674;2023-05-08T03:41:11;102367.53;;;14.85;100.00
72438;BME280;60444;43.534;-5.674;2023-05-08T03:43:37;102387.94;;;14.96;100.00
72438;BME280;60444;43.534;-5.674;2023-05-08T03:46:06;102387.06;;;14.96;100.00
72438;BME280;60444;43.534;-5.674;2023-05-08T03:48:33;102388.94;;;14.94;100.00
72438;BME280;60444;43.534;-5.674;2023-05-08T03:51:02;102390.78;;;14.93;100.00
72438;BME280;60444;43.534;-5.674;2023-05-08T03:53:29;102408.94;;;14.94;100.00
72438;BME280;60444;43.534;-5.674;2023-05-08T03:55:58;102399.03;;;14.92;100.00
72438;BME280;60444;43.534;-5.674;2023-05-08T04:01:36;102388.66;;;14.80;100.00
72438;BME280;60444;43.534;-5.674;2023-05-08T04:12:21;102383.56;;;14.71;100.00
72438;BME280;60444;43.534;-5.674;2023-05-08T04:14:49;102388.13;;;14.70;100.00
72438;BME280;60444;43.534;-5.674;2023-05-08T04:17:35;102393.06;;;14.61;100.00
72438;BME280;60444;43.534;-5.674;2023-05-08T04:20:03;102397.44;;;14.65;100.00
72438;BME280;60444;43.534;-5.674;2023-05-08T04:22:32;102397.81;;;14.55;100.00
72438;BME280;60444;43.534;-5.674;2023-05-08T04:25:00;102407.69;;;14.58;100.00
72438;BME280;60444;43.534;-5.674;2023-05-08T04:27:27;102411.19;;;14.62;100.00
72438;BME280;60444;43.534;-5.674;2023-05-08T04:29:53;102379.81;;;14.51;100.00
72438;BME280;60444;43.534;-5.674;2023-05-08T04:32:20;102397.69;;;14.59;100.00
72438;BME280;60444;43.534;-5.674;2023-05-08T04:34:46;102385.53;;;14.45;100.00
72438;BME280;60444;43.534;-5.674;2023-05-08T04:37:32;102416.50;;;14.65;100.00
72438;BME280;60444;43.534;-5.674;2023-05-08T04:39:59;102396.88;;;14.57;100.00
72438;BME280;60444;43.534;-5.674;2023-05-08T04:42:25;102397.56;;;14.62;100.00
72438;BME280;60444;43.534;-5.674;2023-05-08T04:44:51;102400.22;;;14.63;100.00
72438;BME280;60444;43.534;-5.674;2023-05-08T04:47:17;102392.25;;;14.59;100.00
72438;BME280;60444;43.534;-5.674;2023-05-08T04:49:42;102393.25;;;14.56;100.00
72438;BME280;60444;43.534;-5.674;2023-05-08T04:52:08;102372.72;;;14.47;100.00
72438;BME280;60444;43.534;-5.674;2023-05-08T04:54:34;102402.06;;;14.63;100.00
72438;BME280;60444;43.534;-5.674;2023-05-08T04:56:59;102379.94;;;14.48;100.00
72438;BME280;60444;43.534;-5.674;2023-05-08T04:59:25;102405.66;;;14.63;100.00
72438;BME280;60444;43.534;-5.674;2023-05-08T05:01:51;102411.31;;;14.59;100.00
72438;BME280;60444;43.534;-5.674;2023-05-08T05:04:16;102422.91;;;14.64;100.00
72438;BME280;60444;43.534;-5.674;2023-05-08T05:06:41;102407.78;;;14.55;100.00
72438;BME280;60444;43.534;-5.674;2023-05-08T05:09:07;102401.78;;;14.47;100.00
72438;BME280;60444;43.534;-5.674;2023-05-08T05:11:33;102421.00;;;14.66;100.00
72438;BME280;60444;43.534;-5.674;2023-05-08T05:13:59;102410.59;;;14.53;100.00
72438;BME280;60444;43.534;-5.674;2023-05-08T05:16:24;102422.97;;;14.62;100.00
72438;BME280;60444;43.534;-5.674;2023-05-08T05:18:50;102408.69;;;14.55;100.00
72438;BME280;60444;43.534;-5.674;2023-05-08T05:21:16;102423.00;;;14.61;100.00
72438;BME280;60444;43.534;-5.674;2023-05-08T05:23:41;102430.19;;;14.63;100.00
72438;BME280;60444;43.534;-5.674;2023-05-08T05:26:06;102407.69;;;14.58;100.00
72438;BME280;60444;43.534;-5.674;2023-05-08T05:28:32;102416.69;;;14.60;100.00
72438;BME280;60444;43.534;-5.674;2023-05-08T05:30:58;102421.13;;;14.63;100.00
72438;BME280;60444;43.534;-5.674;2023-05-08T05:33:23;102414.97;;;14.57;100.00
72438;BME280;60444;43.534;-5.674;2023-05-08T05:35:49;102415.72;;;14.61;100.00
72438;BME280;60444;43.534;-5.674;2023-05-08T05:38:14;102433.81;;;14.64;100.00
72438;BME280;60444;43.534;-5.674;2023-05-08T05:40:40;102418.00;;;14.50;100.00
72438;BME280;60444;43.534;-5.674;2023-05-08T05:43:05;102433.19;;;14.55;100.00
72438;BME280;60444;43.534;-5.674;2023-05-08T05:45:31;102433.19;;;14.55;100.00
72438;BME280;60444;43.534;-5.674;2023-05-08T05:47:56;102450.00;;;14.67;100.00
72438;BME280;60444;43.534;-5.674;2023-05-08T05:50:22;102430.63;;;14.52;100.00
72438;BME280;60444;43.534;-5.674;2023-05-08T05:52:47;102461.97;;;14.63;100.00
72438;BME280;60444;43.534;-5.674;2023-05-08T05:55:13;102473.34;;;14.74;100.00
72438;BME280;60444;43.534;-5.674;2023-05-08T05:57:39;102485.00;;;14.77;100.00
72438;BME280;60444;43.534;-5.674;2023-05-08T06:00:05;102480.66;;;14.72;100.00
72438;BME280;60444;43.534;-5.674;2023-05-08T06:02:31;102474.28;;;14.73;100.00
72438;BME280;60444;43.534;-5.674;2023-05-08T06:04:59;102486.31;;;14.67;100.00
72438;BME280;60444;43.534;-5.674;2023-05-08T06:07:24;102467.34;;;14.64;100.00
72438;BME280;60444;43.534;-5.674;2023-05-08T06:09:52;102494.06;;;14.78;100.00
72438;BME280;60444;43.534;-5.674;2023-05-08T06:12:18;102483.66;;;14.66;100.00
72438;BME280;60444;43.534;-5.674;2023-05-08T06:14:43;102483.59;;;14.67;100.00
72438;BME280;60444;43.534;-5.674;2023-05-08T06:17:09;102487.25;;;14.66;100.00
72438;BME280;60444;43.534;-5.674;2023-05-08T06:19:35;102488.69;;;14.76;100.00
72438;BME280;60444;43.534;-5.674;2023-05-08T06:22:01;102500.22;;;14.83;100.00
72438;BME280;60444;43.534;-5.674;2023-05-08T06:24:26;102484.81;;;14.82;100.00
72438;BME280;60444;43.534;-5.674;2023-05-08T06:26:52;102478.53;;;14.80;100.00
72438;BME280;60444;43.534;-5.674;2023-05-08T06:29:18;102489.91;;;14.91;100.00
72438;BME280;60444;43.534;-5.674;2023-05-08T06:31:43;102460.19;;;14.85;100.00
72438;BME280;60444;43.534;-5.674;2023-05-08T06:34:09;102473.50;;;14.92;100.00
72438;BME280;60444;43.534;-5.674;2023-05-08T06:36:37;102463.22;;;14.99;100.00
72438;BME280;60444;43.534;-5.674;2023-05-08T06:39:05;102446.88;;;14.99;100.00
72438;BME280;60444;43.534;-5.674;2023-05-08T06:41:31;102441.31;;;15.02;100.00
72438;BME280;60444;43.534;-5.674;2023-05-08T06:43:57;102396.44;;;14.89;100.00
72438;BME280;60444;43.534;-5.674;2023-05-08T06:46:23;102408.78;;;14.97;100.00
72438;BME280;60444;43.534;-5.674;2023-05-08T06:48:48;102437.94;;;15.17;100.00
72438;BME280;60444;43.534;-5.674;2023-05-08T06:51:14;102454.09;;;15.21;100.00
72438;BME280;60444;43.534;-5.674;2023-05-08T06:53:41;102449.47;;;15.23;100.00
72438;BME280;60444;43.534;-5.674;2023-05-08T06:56:06;102401.38;;;15.01;100.00
72438;BME280;60444;43.534;-5.674;2023-05-08T06:58:32;102424.94;;;15.23;100.00
72438;BME280;60444;43.534;-5.674;2023-05-08T07:01:00;102431.75;;;15.33;100.00
72438;BME280;60444;43.534;-5.674;2023-05-08T07:03:26;102428.34;;;15.28;100.00
72438;BME280;60444;43.534;-5.674;2023-05-08T07:05:52;102436.16;;;15.37;100.00
72438;BME280;60444;43.534;-5.674;2023-05-08T07:08:18;102414.03;;;15.23;100.00
72438;BME280;60444;43.534;-5.674;2023-05-08T07:10:44;102421.69;;;15.35;100.00
72438;BME280;60444;43.534;-5.674;2023-05-08T07:13:09;102414.66;;;15.30;100.00
72438;BME280;60444;43.534;-5.674;2023-05-08T07:15:35;102419.84;;;15.36;100.00
72438;BME280;60444;43.534;-5.674;2023-05-08T07:18:00;102400.59;;;15.40;100.00
72438;BME280;60444;43.534;-5.674;2023-05-08T07:20:26;102417.13;;;15.57;100.00
72438;BME280;60444;43.534;-5.674;2023-05-08T07:22:52;102405.31;;;15.57;100.00
72438;BME280;60444;43.534;-5.674;2023-05-08T07:25:18;102404.06;;;15.64;100.00
72438;BME280;60444;43.534;-5.674;2023-05-08T07:27:43;102393.97;;;15.66;100.00
72438;BME280;60444;43.534;-5.674;2023-05-08T07:30:09;102387.38;;;15.72;100.00
72438;BME280;60444;43.534;-5.674;2023-05-08T07:32:35;102392.59;;;15.76;100.00
72438;BME280;60444;43.534;-5.674;2023-05-08T07:35:02;102385.25;;;15.78;100.00
72438;BME280;60444;43.534;-5.674;2023-05-08T07:37:30;102402.63;;;15.96;100.00
72438;BME280;60444;43.534;-5.674;2023-05-08T07:39:56;102404.53;;;15.94;100.00
72438;BME280;60444;43.534;-5.674;2023-05-08T07:42:22;102377.34;;;15.92;100.00
72438;BME280;60444;43.534;-5.674;2023-05-08T07:44:47;102389.75;;;15.99;100.00
72438;BME280;60444;43.534;-5.674;2023-05-08T07:47:13;102399.53;;;16.03;100.00
72438;BME280;60444;43.534;-5.674;2023-05-08T07:49:38;102393.31;;;16.00;100.00
72438;BME280;60444;43.534;-5.674;2023-05-08T07:52:04;102410.84;;;16.14;100.00
72438;BME280;60444;43.534;-5.674;2023-05-08T07:54:29;102419.56;;;16.22;100.00
72438;BME280;60444;43.534;-5.674;2023-05-08T07:56:55;102386.41;;;16.11;100.00
72438;BME280;60444;43.534;-5.674;2023-05-08T07:59:20;102408.88;;;16.36;100.00
72438;BME280;60444;43.534;-5.674;2023-05-08T08:01:46;102417.66;;;16.43;100.00
72438;BME280;60444;43.534;-5.674;2023-05-08T08:04:12;102406.81;;;16.41;100.00
72438;BME280;60444;43.534;-5.674;2023-05-08T08:06:41;102418.81;;;16.57;100.00
72438;BME280;60444;43.534;-5.674;2023-05-08T08:09:06;102388.09;;;16.52;100.00
72438;BME280;60444;43.534;-5.674;2023-05-08T08:11:32;102408.16;;;16.70;100.00
72438;BME280;60444;43.534;-5.674;2023-05-08T08:13:57;102392.00;;;16.66;100.00
72438;BME280;60444;43.534;-5.674;2023-05-08T08:16:23;102410.44;;;16.79;100.00
72438;BME280;60444;43.534;-5.674;2023-05-08T08:18:48;102403.16;;;16.80;100.00
72438;BME280;60444;43.534;-5.674;2023-05-08T08:21:14;102417.97;;;16.93;100.00
72438;BME280;60444;43.534;-5.674;2023-05-08T08:23:39;102410.81;;;16.90;100.00
72438;BME280;60444;43.534;-5.674;2023-05-08T08:26:05;102412.34;;;16.96;100.00
72438;BME280;60444;43.534;-5.674;2023-05-08T08:28:31;102409.69;;;16.94;100.00
72438;BME280;60444;43.534;-5.674;2023-05-08T08:30:56;102437.88;;;17.13;100.00
72438;BME280;60444;43.534;-5.674;2023-05-08T08:33:22;102401.84;;;17.05;100.00
72438;BME280;60444;43.534;-5.674;2023-05-08T08:35:47;102437.41;;;17.22;100.00
72438;BME280;60444;43.534;-5.674;2023-05-08T08:38:13;102430.50;;;17.15;100.00
72438;BME280;60444;43.534;-5.674;2023-05-08T08:40:39;102430.66;;;17.12;100.00
72438;BME280;60444;43.534;-5.674;2023-05-08T08:45:41;102457.28;;;17.09;100.00
72438;BME280;60444;43.534;-5.674;2023-05-08T08:48:09;102471.44;;;17.17;100.00
72438;BME280;60444;43.534;-5.674;2023-05-08T08:50:41;102481.91;;;17.26;100.00
72438;BME280;60444;43.534;-5.674;2023-05-08T08:53:36;102500.75;;;17.32;100.00
72438;BME280;60444;43.534;-5.674;2023-05-08T08:56:06;102483.69;;;17.27;100.00
72438;BME280;60444;43.534;-5.674;2023-05-08T08:58:38;102488.88;;;17.33;100.00
72438;BME280;60444;43.534;-5.674;2023-05-08T09:01:08;102489.72;;;17.33;100.00
72438;BME280;60444;43.534;-5.674;2023-05-08T09:03:39;102471.88;;;17.26;100.00
72438;BME280;60444;43.534;-5.674;2023-05-08T09:06:05;102484.25;;;17.33;100.00
72438;BME280;60444;43.534;-5.674;2023-05-08T09:08:31;102499.00;;;17.31;100.00
72438;BME280;60444;43.534;-5.674;2023-05-08T09:10:57;102498.91;;;17.32;100.00
72438;BME280;60444;43.534;-5.674;2023-05-08T09:13:22;102479.50;;;17.20;100.00
72438;BME280;60444;43.534;-5.674;2023-05-08T09:15:48;102486.19;;;17.31;100.00
72438;BME280;60444;43.534;-5.674;2023-05-08T09:18:17;102486.34;;;17.28;100.00
72438;BME280;60444;43.534;-5.674;2023-05-08T09:20:43;102495.88;;;17.38;100.00
72438;BME280;60444;43.534;-5.674;2023-05-08T09:23:09;102470.75;;;17.30;100.00
72438;BME280;60444;43.534;-5.674;2023-05-08T09:25:48;102465.03;;;17.35;100.00
72438;BME280;60444;43.534;-5.674;2023-05-08T09:30:55;102450.97;;;17.42;100.00
72438;BME280;60444;43.534;-5.674;2023-05-08T09:33:23;102439.88;;;17.45;100.00
72438;BME280;60444;43.534;-5.674;2023-05-08T09:35:49;102442.56;;;17.47;100.00
72438;BME280;60444;43.534;-5.674;2023-05-08T09:38:44;102431.97;;;17.39;100.00
72438;BME280;60444;43.534;-5.674;2023-05-08T09:41:11;102447.06;;;17.48;100.00
72438;BME280;60444;43.534;-5.674;2023-05-08T09:43:40;102430.44;;;17.34;100.00
72438;BME280;60444;43.534;-5.674;2023-05-08T09:46:32;102447.56;;;17.56;100.00
72438;BME280;60444;43.534;-5.674;2023-05-08T09:49:01;102437.47;;;17.56;100.00
72438;BME280;60444;43.534;-5.674;2023-05-08T09:51:29;102421.59;;;17.47;100.00
72438;BME280;60444;43.534;-5.674;2023-05-08T09:53:57;102433.81;;;17.57;100.00
72438;BME280;60444;43.534;-5.674;2023-05-08T09:56:32;102444.59;;;17.60;100.00
72438;BME280;60444;43.534;-5.674;2023-05-08T09:58:58;102439.03;;;17.62;100.00
72438;BME280;60444;43.534;-5.674;2023-05-08T10:03:56;102443.38;;;17.66;100.00
72438;BME280;60444;43.534;-5.674;2023-05-08T10:06:22;102455.22;;;17.67;100.00
72438;BME280;60444;43.534;-5.674;2023-05-08T10:08:47;102456.13;;;17.67;100.00
72438;BME280;60444;43.534;-5.674;2023-05-08T10:11:18;102477.84;;;17.70;100.00
72438;BME280;60444;43.534;-5.674;2023-05-08T10:13:44;102441.84;;;17.60;100.00
72438;BME280;60444;43.534;-5.674;2023-05-08T10:16:13;102437.34;;;17.77;100.00
72438;BME280;60444;43.534;-5.674;2023-05-08T10:18:46;102430.81;;;17.79;100.00
72438;BME280;60444;43.534;-5.674;2023-05-08T10:21:16;102419.78;;;17.81;100.00
72438;BME280;60444;43.534;-5.674;2023-05-08T10:23:42;102423.25;;;17.84;100.00
72438;BME280;60444;43.534;-5.674;2023-05-08T10:26:12;102405.16;;;17.82;100.00
72438;BME280;60444;43.534;-5.674;2023-05-08T10:29:06;102404.56;;;17.92;100.00
72438;BME280;60444;43.534;-5.674;2023-05-08T10:31:39;102376.56;;;17.87;100.00
72438;BME280;60444;43.534;-5.674;2023-05-08T10:34:07;102386.19;;;17.94;100.00
72438;BME280;60444;43.534;-5.674;2023-05-08T10:36:37;102389.75;;;17.96;100.00
72438;BME280;60444;43.534;-5.674;2023-05-08T10:39:03;102367.28;;;17.90;100.00
72438;BME280;60444;43.534;-5.674;2023-05-08T10:41:29;102398.59;;;18.01;100.00
72438;BME280;60444;43.534;-5.674;2023-05-08T10:43:55;102399.03;;;18.09;100.00
72438;BME280;60444;43.534;-5.674;2023-05-08T10:46:35;102381.56;;;18.12;100.00
72438;BME280;60444;43.534;-5.674;2023-05-08T10:49:24;102364.25;;;18.11;100.00
72438;BME280;60444;43.534;-5.674;2023-05-08T10:57:29;102386.91;;;18.30;100.00
72438;BME280;60444;43.534;-5.674;2023-05-08T10:59:56;102352.25;;;18.14;100.00
72438;BME280;60444;43.534;-5.674;2023-05-08T11:02:26;102364.53;;;18.22;100.00
72438;BME280;60444;43.534;-5.674;2023-05-08T11:04:54;102354.38;;;18.24;100.00
72438;BME280;60444;43.534;-5.674;2023-05-08T11:08:13;102355.00;;;18.29;100.00
72438;BME280;60444;43.534;-5.674;2023-05-08T11:10:14;102369.91;;;18.41;100.00
72438;BME280;60444;43.534;-5.674;2023-05-08T11:12:47;102353.84;;;18.33;100.00
72438;BME280;60444;43.534;-5.674;2023-05-08T11:15:14;102339.25;;;18.33;100.00
72438;BME280;60444;43.534;-5.674;2023-05-08T11:17:40;102374.94;;;18.48;100.00
72438;BME280;60444;43.534;-5.674;2023-05-08T11:20:10;102389.38;;;18.52;100.00
72438;BME280;60444;43.534;-5.674;2023-05-08T11:22:36;102396.94;;;18.47;100.00
72438;BME280;60444;43.534;-5.674;2023-05-08T11:36:10;102399.44;;;18.34;100.00
72438;BME280;60444;43.534;-5.674;2023-05-08T11:38:37;102376.09;;;18.27;100.00
72438;BME280;60444;43.534;-5.674;2023-05-08T11:41:07;102382.06;;;18.35;100.00
72438;BME280;60444;43.534;-5.674;2023-05-08T11:46:02;102391.88;;;18.39;100.00
72438;BME280;60444;43.534;-5.674;2023-05-08T11:48:32;102385.13;;;18.46;100.00
72438;BME280;60444;43.534;-5.674;2023-05-08T11:51:01;102376.50;;;18.52;100.00
72438;BME280;60444;43.534;-5.674;2023-05-08T11:53:28;102358.94;;;18.41;100.00
72438;BME280;60444;43.534;-5.674;2023-05-08T11:55:58;102387.75;;;18.48;100.00
72438;BME280;60444;43.534;-5.674;2023-05-08T11:58:25;102383.31;;;18.45;100.00
72438;BME280;60444;43.534;-5.674;2023-05-08T12:00:51;102370.38;;;18.32;100.00
72438;BME280;60444;43.534;-5.674;2023-05-08T12:03:18;102392.63;;;18.43;100.00
72438;BME280;60444;43.534;-5.674;2023-05-08T12:05:45;102386.25;;;18.42;100.00
72438;BME280;60444;43.534;-5.674;2023-05-08T12:08:13;102372.03;;;18.34;100.00
72438;BME280;60444;43.534;-5.674;2023-05-08T12:10:48;102380.97;;;18.38;100.00
72438;BME280;60444;43.534;-5.674;2023-05-08T12:13:17;102371.09;;;18.35;100.00
72438;BME280;60444;43.534;-5.674;2023-05-08T12:15:45;102382.19;;;18.49;100.00
72438;BME280;60444;43.534;-5.674;2023-05-08T12:18:11;102390.41;;;18.49;100.00
72438;BME280;60444;43.534;-5.674;2023-05-08T12:20:37;102378.63;;;18.47;100.00
72438;BME280;60444;43.534;-5.674;2023-05-08T12:23:02;102374.63;;;18.37;100.00
72438;BME280;60444;43.534;-5.674;2023-05-08T12:25:28;102359.00;;;18.39;100.00
72438;BME280;60444;43.534;-5.674;2023-05-08T12:27:54;102365.84;;;18.48;100.00
72438;BME280;60444;43.534;-5.674;2023-05-08T12:30:21;102350.78;;;18.39;100.00
72438;BME280;60444;43.534;-5.674;2023-05-08T12:32:47;102353.38;;;18.42;100.00
72438;BME280;60444;43.534;-5.674;2023-05-08T12:35:14;102361.25;;;18.48;100.00
72438;BME280;60444;43.534;-5.674;2023-05-08T12:37:40;102332.34;;;18.43;100.00
72438;BME280;60444;43.534;-5.674;2023-05-08T12:40:07;102354.97;;;18.62;100.00
72438;BME280;60444;43.534;-5.674;2023-05-08T12:42:47;102358.22;;;18.69;100.00
72438;BME280;60444;43.534;-5.674;2023-05-08T12:45:20;102352.81;;;18.67;100.00
72438;BME280;60444;43.534;-5.674;2023-05-08T12:47:50;102367.00;;;18.75;100.00
72438;BME280;60444;43.534;-5.674;2023-05-08T12:50:17;102367.59;;;18.80;100.00
72438;BME280;60444;43.534;-5.674;2023-05-08T12:52:47;102360.59;;;18.90;100.00
72438;BME280;60444;43.534;-5.674;2023-05-08T12:55:24;102359.19;;;18.99;100.00
72438;BME280;60444;43.534;-5.674;2023-05-08T12:58:07;102366.88;;;19.08;100.00
72438;BME280;60444;43.534;-5.674;2023-05-08T13:00:34;102359.84;;;19.18;100.00
72438;BME280;60444;43.534;-5.674;2023-05-08T13:03:01;102330.13;;;19.10;100.00
72438;BME280;60444;43.534;-5.674;2023-05-08T13:05:27;102363.34;;;19.35;100.00
72438;BME280;60444;43.534;-5.674;2023-05-08T13:07:58;102351.13;;;19.41;100.00
72438;BME280;60444;43.534;-5.674;2023-05-08T13:10:25;102360.28;;;19.55;100.00
72438;BME280;60444;43.534;-5.674;2023-05-08T13:12:50;102362.75;;;19.60;100.00
72438;BME280;60444;43.534;-5.674;2023-05-08T13:15:16;102356.88;;;19.66;100.00
72438;BME280;60444;43.534;-5.674;2023-05-08T13:17:42;102336.09;;;19.62;100.00
72438;BME280;60444;43.534;-5.674;2023-05-08T13:20:07;102346.41;;;19.73;100.00
72438;BME280;60444;43.534;-5.674;2023-05-08T13:22:33;102365.53;;;19.88;100.00
72438;BME280;60444;43.534;-5.674;2023-05-08T13:24:59;102356.22;;;19.91;100.00
72438;BME280;60444;43.534;-5.674;2023-05-08T13:27:24;102365.63;;;20.01;100.00
72438;BME280;60444;43.534;-5.674;2023-05-08T13:29:50;102338.66;;;19.93;100.00
72438;BME280;60444;43.534;-5.674;2023-05-08T13:32:16;102360.66;;;20.07;100.00
72438;BME280;60444;43.534;-5.674;2023-05-08T13:34:41;102381.38;;;20.13;100.00